Time;durP1;ratioP1;P1;durP2;ratioP2;P2;SDS_P1;SDS_P2;PMS_P1;PMS_P2;Temp;Humidity;BMP_temperature;BMP_pressure;BME280_temperature;BME280_humidity;BME280_pressure;Samples;Min_cycle;Max_cycle;Signal;HPM_P1;HPM_P2
2022/01/28 00:01:02;;;;;;;;;54.75;42.25;;;;;8.77;85.27;103141.91;5016351;28;46404;-66
2022/01/28 00:03:27;;;;;;;;;53.25;43.00;;;;;8.81;84.78;103133.56;5019092;28;45240;-66
2022/01/28 00:05:53;;;;;;;;;49.00;41.50;;;;;8.80;84.63;103133.63;5017991;28;45208;-66
2022/01/28 00:08:18;;;;;;;;;54.00;43.00;;;;;8.77;84.77;103136.47;5043964;28;45421;-66
2022/01/28 00:10:43;;;;;;;;;55.75;44.00;;;;;8.79;84.62;103145.41;5013106;28;47481;-66
2022/01/28 00:16:04;;;;;;;;;57.50;44.25;;;;;8.71;85.57;103147.63;5020868;28;45449;-66
2022/01/28 00:38:27;;;;;;;;;59.00;43.75;;;;;8.61;86.38;103163.50;5018388;28;45457;-66
2022/01/28 00:40:25;;;;;;;;;53.00;41.75;;;;;8.62;86.13;103165.22;5016341;28;45444;-66
2022/01/28 00:42:50;;;;;;;;;54.75;44.25;;;;;8.65;85.90;103178.66;5018865;28;46604;-66
2022/01/28 00:45:15;;;;;;;;;56.00;41.75;;;;;8.61;85.87;103170.75;5020618;28;45241;-66
2022/01/28 00:47:41;;;;;;;;;53.75;40.25;;;;;8.65;86.37;103166.91;5021084;28;45403;-66
2022/01/28 00:50:06;;;;;;;;;50.75;41.00;;;;;8.64;86.78;103176.00;5022838;28;48226;-66
2022/01/28 00:52:32;;;;;;;;;56.50;41.00;;;;;8.67;86.26;103175.88;5021544;28;45362;-66
2022/01/28 00:54:57;;;;;;;;;56.25;42.00;;;;;8.68;86.11;103169.50;5024705;28;45346;-66
2022/01/28 00:57:22;;;;;;;;;59.50;45.50;;;;;8.65;86.29;103177.75;5020920;28;45373;-66
2022/01/28 00:59:48;;;;;;;;;48.75;39.25;;;;;8.62;86.34;103172.53;5026174;28;45607;-66
2022/01/28 01:02:13;;;;;;;;;51.25;40.25;;;;;8.59;86.43;103181.66;5017271;28;46534;-66
2022/01/28 01:04:40;;;;;;;;;61.50;43.50;;;;;8.61;86.82;103181.59;5024117;28;45409;-66
2022/01/28 01:07:08;;;;;;;;;52.75;43.25;;;;;8.66;86.61;103182.22;5018726;28;45500;-66
2022/01/28 01:09:33;;;;;;;;;56.50;45.00;;;;;8.72;86.12;103176.50;5024884;28;45269;-66
2022/01/28 01:11:59;;;;;;;;;53.25;40.00;;;;;8.68;86.13;103183.91;5019983;28;46189;-66
2022/01/28 01:14:24;;;;;;;;;54.75;42.00;;;;;8.70;86.16;103186.53;5024010;28;45399;-66
2022/01/28 01:17:06;;;;;;;;;54.50;42.25;;;;;8.69;85.78;103196.53;5022159;28;45378;-66
2022/01/28 01:19:38;;;;;;;;;55.25;42.25;;;;;8.60;86.03;103205.09;5025275;28;45317;-66
2022/01/28 01:22:03;;;;;;;;;46.75;37.50;;;;;8.62;86.37;103199.63;5022681;28;45827;-66
2022/01/28 01:24:35;;;;;;;;;45.50;39.00;;;;;8.37;86.17;103199.94;5025846;28;45313;-66
2022/01/28 01:27:01;;;;;;;;;55.00;39.50;;;;;8.41;87.09;103207.81;5016042;28;45383;-66
2022/01/28 01:29:27;;;;;;;;;46.00;37.25;;;;;8.39;86.51;103198.91;5026193;28;45518;-66
2022/01/28 01:32:00;;;;;;;;;45.50;38.00;;;;;8.38;86.09;103199.84;5013842;28;45622;-66
2022/01/28 01:34:26;;;;;;;;;48.00;36.00;;;;;8.28;86.62;103205.75;5025661;28;45311;-66
2022/01/28 01:36:51;;;;;;;;;45.00;37.50;;;;;8.12;86.43;103205.59;5018987;28;45434;-66
2022/01/28 01:39:23;;;;;;;;;54.25;36.75;;;;;8.18;86.78;103210.75;5026166;28;45204;-66
2022/01/28 01:41:56;;;;;;;;;43.33;36.00;;;;;8.10;87.24;103212.94;5018504;28;46348;-66
2022/01/28 01:52:49;;;;;;;;;44.33;37.67;;;;;8.25;86.26;103225.75;5021344;28;45315;-66
2022/01/28 01:55:14;;;;;;;;;49.00;38.00;;;;;8.26;85.96;103224.78;5023290;28;45363;-66
2022/01/28 01:57:40;;;;;;;;;41.00;34.33;;;;;8.28;86.20;103227.41;5016017;28;45336;-66
2022/01/28 02:00:07;;;;;;;;;42.33;34.67;;;;;8.28;85.71;103230.13;5023475;28;45251;-66
2022/01/28 02:02:33;;;;;;;;;45.00;37.00;;;;;8.29;85.87;103232.75;5018330;28;45590;-66
2022/01/28 02:04:58;;;;;;;;;43.00;31.67;;;;;8.31;85.66;103241.75;5023673;28;45636;-66
2022/01/28 02:07:25;;;;;;;;;39.33;34.67;;;;;8.26;85.87;103246.44;5019825;28;45311;-66
2022/01/28 02:09:50;;;;;;;;;44.33;38.00;;;;;8.26;85.74;103246.44;5025121;28;45383;-66
2022/01/28 02:12:16;;;;;;;;;47.67;33.33;;;;;8.15;86.22;103243.38;5020345;28;45390;-66
2022/01/28 02:14:42;;;;;;;;;36.33;31.00;;;;;8.21;86.11;103248.50;5025164;28;45331;-66
2022/01/28 02:17:08;;;;;;;;;43.00;33.67;;;;;8.25;86.00;103262.78;5022437;28;45500;-66
2022/01/28 02:19:35;;;;;;;;;42.00;30.67;;;;;8.27;85.96;103252.72;5025263;28;45473;-66
2022/01/28 02:22:01;;;;;;;;;45.67;33.67;;;;;8.28;85.91;103249.97;5022395;28;45470;-66
2022/01/28 02:24:35;;;;;;;;;38.33;27.33;;;;;8.33;85.64;103247.94;5024910;28;45318;-66
2022/01/28 02:27:01;;;;;;;;;46.33;31.00;;;;;8.33;85.68;103247.94;5015202;28;45224;-66
2022/01/28 02:29:29;;;;;;;;;42.50;34.50;;;;;8.23;85.42;103259.25;5025227;28;45208;-66
2022/01/28 02:31:57;;;;;;;;;32.67;29.00;;;;;8.16;85.32;103258.69;5018873;28;46186;-66
2022/01/28 02:34:22;;;;;;;;;41.00;34.00;;;;;8.27;85.55;103247.31;5024815;28;45367;-66
2022/01/28 02:36:48;;;;;;;;;40.67;31.00;;;;;8.32;85.88;103261.59;5015119;28;45545;-66
2022/01/28 02:39:13;;;;;;;;;46.33;35.67;;;;;8.31;85.27;103262.53;5023759;28;45296;-66
2022/01/28 02:41:43;;;;;;;;;39.00;34.25;;;;;8.29;85.60;103267.97;5017534;28;45651;-66
2022/01/28 02:44:21;;;;;;;;;47.75;36.25;;;;;8.25;85.56;103276.34;5024623;28;45510;-66
2022/01/28 02:46:59;;;;;;;;;40.00;31.33;;;;;8.23;85.74;103268.28;5033338;28;45533;-66
2022/01/28 02:49:28;;;;;;;;;44.33;35.67;;;;;8.26;85.86;103262.69;5018656;28;45269;-66
2022/01/28 02:51:54;;;;;;;;;44.33;35.33;;;;;8.28;85.45;103266.22;5017587;28;45410;-66
2022/01/28 02:54:20;;;;;;;;;55.75;38.75;;;;;8.20;85.07;103268.41;5039536;28;45212;-66
2022/01/28 02:57:24;;;;;;;;;37.67;36.00;;;;;8.02;85.36;103264.75;5021092;28;45371;-66
2022/01/28 02:59:37;;;;;;;;;45.67;37.00;;;;;8.01;85.98;103272.91;5023080;28;45158;-66
2022/01/28 03:02:02;;;;;;;;;36.33;32.33;;;;;8.05;85.86;103272.69;5017751;28;45311;-66
2022/01/28 03:07:11;;;;;;;;;42.67;34.67;;;;;8.10;85.87;103257.13;5017776;28;45441;-67
2022/01/28 03:09:50;;;;;;;;;38.33;32.33;;;;;7.97;85.34;103253.22;5019808;28;45589;-66
2022/01/28 03:12:19;;;;;;;;;48.67;35.67;;;;;7.89;86.20;103254.53;5019567;28;45552;-66
2022/01/28 03:17:48;;;;;;;;;38.33;35.00;;;;;7.89;86.28;103247.28;5021997;28;45515;-66
2022/01/28 03:22:42;;;;;;;;;34.75;29.75;;;;;7.92;86.05;103241.72;5015862;28;45939;-66
2022/01/28 03:25:07;;;;;;;;;46.25;35.75;;;;;7.84;86.47;103252.03;5021364;28;45407;-64
2022/01/28 03:27:46;;;;;;;;;38.00;28.00;;;;;7.90;86.43;103253.56;5016491;28;45347;-66
2022/01/28 03:30:12;;;;;;;;;37.33;30.00;;;;;7.96;86.13;103256.03;5023115;28;45309;-65
2022/01/28 03:32:37;;;;;;;;;44.33;31.67;;;;;8.04;86.28;103251.97;5013112;28;45886;-65
2022/01/28 03:35:04;;;;;;;;;41.25;34.25;;;;;8.08;85.96;103258.16;5021954;28;45331;-65
2022/01/28 03:37:30;;;;;;;;;43.50;33.00;;;;;8.06;85.45;103246.50;5044528;28;45405;-65
2022/01/28 03:39:55;;;;;;;;;40.00;34.75;;;;;8.03;85.31;103246.66;5023275;28;45301;-65
2022/01/28 03:42:21;;;;;;;;;46.33;34.33;;;;;8.01;85.21;103251.25;5032890;28;46127;-65
2022/01/28 03:44:46;;;;;;;;;36.00;31.33;;;;;8.00;85.32;103246.78;5023774;28;45284;-65
2022/01/28 03:47:11;;;;;;;;;42.00;30.00;;;;;8.01;85.33;103256.69;5017031;28;45363;-65
2022/01/28 03:49:37;;;;;;;;;46.33;38.00;;;;;8.01;85.42;103262.09;5024102;28;45233;-65
2022/01/28 03:52:03;;;;;;;;;49.75;35.75;;;;;8.00;85.21;103266.63;5015330;28;46178;-65
2022/01/28 03:54:28;;;;;;;;;46.50;37.00;;;;;8.02;85.52;103271.97;5021939;28;45830;-65
2022/01/28 03:56:53;;;;;;;;;38.67;33.67;;;;;7.97;84.93;103280.28;5016743;28;45911;-65
2022/01/28 03:59:19;;;;;;;;;39.75;33.75;;;;;7.96;85.58;103285.78;5038284;28;45249;-65
2022/01/28 04:01:46;;;;;;;;;56.25;39.75;;;;;7.86;85.86;103284.44;5017787;28;45386;-65
2022/01/28 04:12:15;;;;;;;;;48.50;38.75;;;;;7.78;86.55;103301.03;5018158;28;45930;-65
2022/01/28 04:17:29;;;;;;;;;47.67;38.67;;;;;7.87;86.49;103287.09;5036827;28;45334;-65
2022/01/28 04:19:54;;;;;;;;;44.25;34.50;;;;;7.80;86.04;103289.19;5022761;28;45373;-65
2022/01/28 04:22:20;;;;;;;;;54.50;36.50;;;;;7.78;85.99;103293.78;5012937;28;46315;-65
2022/01/28 04:24:47;;;;;;;;;44.67;29.33;;;;;7.88;86.37;103296.09;5023188;28;45274;-65
2022/01/28 04:27:12;;;;;;;;;45.75;37.50;;;;;7.89;85.85;103285.16;5015887;28;45522;-65
2022/01/28 04:29:38;;;;;;;;;45.75;39.50;;;;;7.96;85.82;103297.50;5023500;28;45204;-65
2022/01/28 04:32:04;;;;;;;;;47.50;36.00;;;;;7.97;85.90;103295.66;5013863;28;45432;-65
2022/01/28 04:34:29;;;;;;;;;48.50;36.75;;;;;8.01;85.02;103300.88;5022914;28;45291;-65
2022/01/28 04:37:16;;;;;;;;;54.75;40.75;;;;;7.99;85.49;103291.94;4995024;28;45387;-65
2022/01/28 04:47:13;;;;;;;;;47.50;36.50;;;;;8.08;84.86;103296.06;5016081;28;45614;-65
2022/01/28 04:50:01;;;;;;;;;42.33;34.67;;;;;8.08;85.00;103301.47;5021820;28;45268;-65
2022/01/28 04:57:38;;;;;;;;;42.00;36.75;;;;;8.04;84.70;103299.84;5015824;28;45712;-65
2022/01/28 05:08:25;;;;;;;;;43.00;33.25;;;;;7.90;86.33;103318.53;5015326;28;45405;-65
2022/01/28 05:10:37;;;;;;;;;58.25;41.25;;;;;7.84;86.26;103319.69;5023453;28;46330;-65
2022/01/28 05:26:21;;;;;;;;;43.33;34.67;;;;;7.88;85.78;103334.88;5015817;28;45201;-65
2022/01/28 05:28:48;;;;;;;;;48.50;37.25;;;;;7.85;85.93;103331.41;5021905;28;45268;-65
2022/01/28 05:31:13;;;;;;;;;46.50;39.00;;;;;7.85;85.49;103340.41;5016543;28;45512;-65
2022/01/28 05:33:38;;;;;;;;;46.75;37.50;;;;;7.86;85.77;103350.28;5035575;28;47082;-65
2022/01/28 05:36:04;;;;;;;;;48.75;38.00;;;;;7.97;86.06;103356.09;5018786;28;45438;-65
2022/01/28 05:38:29;;;;;;;;;55.50;38.00;;;;;7.97;85.15;103355.22;5025473;28;45492;-65
2022/01/28 05:40:55;;;;;;;;;48.75;39.25;;;;;7.99;85.68;103346.06;5022697;28;45466;-65
2022/01/28 05:43:20;;;;;;;;;47.33;36.33;;;;;8.06;85.80;103350.28;5021811;28;46383;-65
2022/01/28 05:45:45;;;;;;;;;44.00;33.75;;;;;8.04;85.31;103360.28;5018876;28;45458;-65
2022/01/28 05:48:11;;;;;;;;;51.00;40.00;;;;;8.07;85.34;103364.69;5022599;28;45310;-65
2022/01/28 05:50:37;;;;;;;;;43.75;35.75;;;;;8.01;84.97;103360.44;5021535;28;45529;-66
2022/01/28 05:53:03;;;;;;;;;43.75;37.50;;;;;8.01;85.18;103359.56;5022499;28;45408;-65
2022/01/28 05:55:29;;;;;;;;;50.75;40.25;;;;;8.06;85.62;103371.06;5022371;28;45360;-65
2022/01/28 05:57:54;;;;;;;;;52.50;42.00;;;;;8.08;85.56;103370.03;5017473;28;45461;-65
2022/01/28 06:00:20;;;;;;;;;47.75;37.75;;;;;8.09;84.90;103379.06;5023713;28;45312;-65
2022/01/28 06:02:45;;;;;;;;;50.75;40.75;;;;;8.07;84.85;103375.53;5018280;28;46575;-65
2022/01/28 06:05:12;;;;;;;;;54.00;41.75;;;;;7.99;84.87;103383.09;5023182;28;45503;-66
2022/01/28 06:07:41;;;;;;;;;46.75;36.50;;;;;7.90;84.78;103384.38;5020383;28;45229;-65
2022/01/28 06:10:09;;;;;;;;;55.25;42.50;;;;;7.81;84.89;103396.50;5021250;28;45652;-65
2022/01/28 06:12:42;;;;;;;;;42.25;34.75;;;;;7.82;85.23;103382.00;5020652;28;47125;-66
2022/01/28 06:15:09;;;;;;;;;51.25;40.75;;;;;7.84;85.13;103384.66;5022652;28;45323;-65
2022/01/28 06:17:34;;;;;;;;;51.00;37.25;;;;;7.88;85.15;103385.41;5014066;28;45413;-66
2022/01/28 06:20:02;;;;;;;;;48.25;36.75;;;;;7.96;85.14;103388.66;5024110;28;45415;-65
2022/01/28 06:22:27;;;;;;;;;45.75;38.00;;;;;7.92;85.06;103381.59;5014231;28;47755;-65
2022/01/28 06:24:52;;;;;;;;;41.50;38.00;;;;;8.06;84.64;103390.88;5023996;28;45289;-65
2022/01/28 06:27:18;;;;;;;;;44.50;35.75;;;;;8.12;84.61;103385.19;5017987;28;45285;-65
2022/01/28 06:29:43;;;;;;;;;41.67;28.00;;;;;8.16;84.56;103386.84;5020173;28;45371;-65
2022/01/28 06:32:11;;;;;;;;;42.33;35.33;;;;;8.19;83.87;103391.22;5014504;28;45579;-66
2022/01/28 06:34:38;;;;;;;;;41.00;30.67;;;;;8.19;83.51;103391.22;5019601;28;45419;-66
2022/01/28 06:37:04;;;;;;;;;45.00;35.75;;;;;8.14;83.61;103377.00;5016150;28;45278;-65
2022/01/28 06:39:32;;;;;;;;;38.33;34.00;;;;;8.21;83.63;103383.91;5025128;28;45296;-65
2022/01/28 06:41:57;;;;;;;;;34.00;29.67;;;;;8.22;83.24;103380.25;5032243;28;47310;-65
2022/01/28 06:44:23;;;;;;;;;48.00;36.00;;;;;8.26;83.66;103381.84;5023583;28;45338;-66
2022/01/28 06:46:48;;;;;;;;;40.75;35.75;;;;;8.24;83.83;103394.63;5017594;28;45334;-65
2022/01/28 06:49:14;;;;;;;;;39.33;29.00;;;;;8.27;83.25;103399.88;5024664;28;45342;-65
2022/01/28 06:51:39;;;;;;;;;34.00;26.75;;;;;8.31;83.46;103400.66;5032369;28;48393;-65
2022/01/28 06:54:04;;;;;;;;;42.00;32.33;;;;;8.32;83.25;103395.19;5022499;28;45349;-65
2022/01/28 06:56:30;;;;;;;;;36.67;33.00;;;;;8.31;83.36;103396.13;5017152;28;45392;-66
2022/01/28 06:58:55;;;;;;;;;42.67;34.67;;;;;8.31;83.05;103400.66;5020183;28;45407;-65
2022/01/28 07:01:20;;;;;;;;;39.33;34.33;;;;;8.35;83.43;103403.16;5018038;28;45581;-66
2022/01/28 07:03:46;;;;;;;;;48.50;36.75;;;;;8.34;82.98;103404.09;5020380;28;45323;-65
2022/01/28 07:06:13;;;;;;;;;47.00;37.50;;;;;8.19;82.94;103408.34;5018772;28;45486;-65
2022/01/28 07:08:38;;;;;;;;;42.50;33.50;;;;;8.15;83.35;103397.72;5021679;28;45383;-66
2022/01/28 07:11:03;;;;;;;;;50.75;35.50;;;;;8.16;83.15;103404.91;5019994;28;45428;-65
2022/01/28 07:13:29;;;;;;;;;35.75;28.25;;;;;8.03;83.23;103409.09;5037544;28;45831;-65
2022/01/28 07:15:54;;;;;;;;;44.25;36.00;;;;;8.05;83.62;103405.38;5020804;28;45751;-66
2022/01/28 07:18:20;;;;;;;;;35.00;28.00;;;;;8.09;83.93;103420.53;5014897;28;45300;-65
2022/01/28 07:20:45;;;;;;;;;46.00;39.25;;;;;8.03;83.55;103417.22;5020557;28;45330;-65
2022/01/28 07:23:11;;;;;;;;;44.25;36.25;;;;;8.02;83.83;103420.88;5013171;28;45461;-65
2022/01/28 07:25:36;;;;;;;;;50.25;38.75;;;;;7.94;84.14;103423.91;5019170;28;45250;-66
2022/01/28 07:28:02;;;;;;;;;52.00;39.50;;;;;7.93;84.24;103429.41;5019474;28;45347;-66
2022/01/28 07:30:27;;;;;;;;;38.00;35.75;;;;;8.03;84.02;103428.06;5018842;28;46357;-64
2022/01/28 07:32:53;;;;;;;;;51.25;43.00;;;;;8.13;83.85;103427.56;5018393;28;45477;-65
2022/01/28 07:35:19;;;;;;;;;49.00;39.25;;;;;8.18;83.43;103432.81;5019883;28;45355;-65
2022/01/28 07:37:44;;;;;;;;;55.25;37.00;;;;;8.20;83.10;103434.47;5015943;28;45543;-66
2022/01/28 07:40:10;;;;;;;;;47.75;37.75;;;;;8.27;82.84;103437.78;5020212;28;46050;-65
2022/01/28 07:42:39;;;;;;;;;50.25;39.75;;;;;8.31;82.59;103436.75;5017266;28;45349;-65
2022/01/28 07:45:06;;;;;;;;;52.50;38.00;;;;;8.37;82.11;103443.72;5018074;28;45240;-64
2022/01/28 07:47:32;;;;;;;;;50.75;37.25;;;;;8.29;82.33;103430.50;5017903;28;45436;-65
2022/01/28 07:49:58;;;;;;;;;40.00;36.50;;;;;8.32;81.99;103452.06;5020932;28;46029;-65
2022/01/28 07:52:23;;;;;;;;;40.00;35.00;;;;;8.33;82.31;103453.81;5016919;28;45427;-67
2022/01/28 07:54:50;;;;;;;;;55.25;37.00;;;;;8.30;82.04;103461.16;5022484;28;45358;-66
2022/01/28 07:57:16;;;;;;;;;47.75;37.00;;;;;8.28;81.90;103461.22;5014443;28;45584;-66
2022/01/28 07:59:41;;;;;;;;;58.25;40.75;;;;;8.26;81.69;103465.81;5022725;28;46440;-66
2022/01/28 08:02:07;;;;;;;;;52.75;40.50;;;;;8.30;81.76;103469.28;5016657;28;45378;-66
2022/01/28 08:04:32;;;;;;;;;49.75;38.00;;;;;8.30;81.78;103470.19;5020830;28;45354;-66
2022/01/28 08:06:58;;;;;;;;;50.75;39.00;;;;;8.28;81.11;103469.34;5018942;28;45426;-66
2022/01/28 08:09:23;;;;;;;;;54.75;43.00;;;;;8.30;81.59;103470.19;5020119;28;45224;-66
2022/01/28 08:11:48;;;;;;;;;48.50;39.75;;;;;8.28;81.14;103474.78;5019287;28;45303;-66
2022/01/28 08:14:14;;;;;;;;;41.75;37.75;;;;;8.39;81.01;103480.66;5021593;28;45485;-66
2022/01/28 08:16:40;;;;;;;;;42.75;33.75;;;;;8.43;81.17;103479.53;5014914;28;45253;-66
2022/01/28 08:19:05;;;;;;;;;43.50;38.00;;;;;8.39;80.32;103477.06;5018611;28;47569;-65
2022/01/28 08:21:31;;;;;;;;;52.75;43.25;;;;;8.28;79.97;103469.34;5015622;28;46026;-65
2022/01/28 08:23:56;;;;;;;;;39.75;31.25;;;;;8.30;79.98;103475.59;5035047;28;45287;-65
2022/01/28 08:26:22;;;;;;;;;43.75;38.25;;;;;8.36;80.36;103474.47;5015388;28;45534;-65
2022/01/28 08:28:47;;;;;;;;;55.75;39.50;;;;;8.36;80.53;103478.06;5020865;28;47028;-65
2022/01/28 08:31:13;;;;;;;;;45.50;37.00;;;;;8.34;80.09;103488.06;5015691;28;45641;-66
2022/01/28 08:33:39;;;;;;;;;44.25;38.75;;;;;8.39;80.00;103490.59;5019654;28;45258;-66
2022/01/28 08:36:05;;;;;;;;;39.75;30.75;;;;;8.33;79.07;103493.59;5016456;28;45302;-66
2022/01/28 08:38:36;;;;;;;;;40.25;35.75;;;;;8.29;79.16;103506.31;5022218;28;45513;-66
2022/01/28 08:41:03;;;;;;;;;32.00;25.50;;;;;8.33;79.30;103513.41;5015713;28;45430;-66
2022/01/28 08:43:28;;;;;;;;;42.50;35.75;;;;;8.32;79.37;103511.66;5022328;28;45422;-66
2022/01/28 08:45:55;;;;;;;;;48.75;40.00;;;;;8.37;78.86;103523.16;5016598;28;45541;-66
2022/01/28 08:48:20;;;;;;;;;52.25;38.50;;;;;8.29;78.56;103517.16;5021833;28;46259;-66
2022/01/28 08:50:46;;;;;;;;;43.75;36.25;;;;;8.35;78.22;103527.75;5017290;28;45251;-64
2022/01/28 08:53:11;;;;;;;;;45.50;38.75;;;;;8.39;78.72;103528.53;5016145;28;45422;-66
2022/01/28 08:55:38;;;;;;;;;50.50;38.00;;;;;8.37;78.15;103536.72;5042616;28;45658;-65
2022/01/28 08:58:04;;;;;;;;;45.75;38.00;;;;;8.35;78.26;103535.88;5016684;28;45378;-65
2022/01/28 09:00:30;;;;;;;;;49.50;38.75;;;;;8.39;77.67;103536.66;5019404;28;45273;-65
2022/01/28 09:02:55;;;;;;;;;53.50;38.75;;;;;8.44;78.21;103549.03;5017387;28;45391;-65
2022/01/28 09:05:20;;;;;;;;;54.00;40.00;;;;;8.43;78.16;103551.81;5019207;28;45618;-64
2022/01/28 09:07:48;;;;;;;;;46.50;36.50;;;;;8.50;77.88;103553.31;5020714;28;45338;-65
2022/01/28 09:10:18;;;;;;;;;45.75;39.00;;;;;8.35;77.85;103543.13;5023907;28;45439;-64
2022/01/28 09:15:40;;;;;;;;;46.75;36.00;;;;;8.42;77.60;103553.63;5023946;28;45688;-67
2022/01/28 09:18:07;;;;;;;;;45.25;37.25;;;;;8.45;76.98;103550.81;5016108;28;48102;-66
2022/01/28 09:20:34;;;;;;;;;50.25;39.50;;;;;8.53;77.66;103548.66;5022393;28;45335;-65
2022/01/28 09:23:01;;;;;;;;;37.75;34.50;;;;;8.59;77.25;103542.97;5022145;28;45272;-65
2022/01/28 09:25:27;;;;;;;;;44.00;34.00;;;;;8.63;77.20;103545.50;5024516;28;45283;-66
2022/01/28 09:27:52;;;;;;;;;49.25;38.00;;;;;8.67;76.73;103552.56;5019295;28;47091;-65
2022/01/28 09:30:18;;;;;;;;;36.50;28.75;;;;;8.68;76.27;103554.34;5021878;28;45229;-67
2022/01/28 09:32:44;;;;;;;;;37.75;36.00;;;;;8.62;75.87;103549.19;5020897;28;45539;-67
2022/01/28 09:35:09;;;;;;;;;35.50;28.25;;;;;8.68;76.47;103552.53;5023462;28;45897;-65
2022/01/28 09:37:35;;;;;;;;;41.00;33.00;;;;;8.67;75.39;103545.34;5020236;28;45343;-66
2022/01/28 09:40:02;;;;;;;;;45.00;36.67;;;;;8.57;75.44;103549.38;5024403;28;45498;-65
2022/01/28 09:42:31;;;;;;;;;36.50;28.75;;;;;8.62;75.49;103557.34;5019128;28;45392;-65
2022/01/28 09:44:59;;;;;;;;;52.75;38.00;;;;;8.51;75.35;103547.81;5024583;28;45592;-65
2022/01/28 09:47:25;;;;;;;;;38.75;34.25;;;;;8.47;74.95;103562.47;5018942;28;45354;-65
2022/01/28 09:49:51;;;;;;;;;40.50;33.25;;;;;8.52;74.59;103551.41;5024767;28;45366;-65
2022/01/28 09:52:18;;;;;;;;;38.00;32.75;;;;;8.54;74.59;103549.53;5018161;28;45433;-65
2022/01/28 09:54:46;;;;;;;;;35.67;34.00;;;;;8.79;75.41;103560.16;5025503;28;45229;-65
2022/01/28 09:57:12;;;;;;;;;29.50;28.25;;;;;8.99;74.49;103555.59;5016829;28;45431;-64
2022/01/28 09:59:38;;;;;;;;;35.25;30.25;;;;;8.88;73.49;103559.75;5022132;28;45161;-65
2022/01/28 10:02:04;;;;;;;;;39.67;33.67;;;;;8.80;73.70;103545.66;5020208;28;45540;-65
2022/01/28 10:04:29;;;;;;;;;44.00;31.00;;;;;9.06;74.00;103560.75;5021169;28;45356;-65
2022/01/28 10:06:56;;;;;;;;;36.00;30.33;;;;;9.19;74.26;103546.56;5019384;28;47848;-65
2022/01/28 10:09:23;;;;;;;;;47.25;37.75;;;;;9.11;73.13;103562.31;5023090;28;45448;-65
2022/01/28 10:11:52;;;;;;;;;44.25;38.25;;;;;8.94;73.27;103559.47;5037502;28;45817;-66
2022/01/28 10:14:24;;;;;;;;;48.25;37.00;;;;;8.95;74.09;103558.53;5024722;28;45502;-65
2022/01/28 10:16:59;;;;;;;;;44.67;36.67;;;;;9.12;73.95;103566.78;5015199;28;46765;-65
2022/01/28 10:19:27;;;;;;;;;17.00;8.33;;;;;9.10;72.83;103556.94;5022342;28;45527;-65
2022/01/28 10:21:53;;;;;;;;;32.67;28.67;;;;;8.88;72.49;103562.47;5015586;28;45539;-65
2022/01/28 10:24:24;;;;;;;;;24.00;19.67;;;;;8.73;73.02;103569.44;5024987;28;45355;-65
2022/01/28 10:26:56;;;;;;;;;28.00;22.00;;;;;8.61;73.46;103558.28;5018454;28;46079;-65
2022/01/28 10:29:27;;;;;;;;;30.00;24.00;;;;;8.78;73.54;103563.81;5024061;28;45319;-66
2022/01/28 10:32:03;;;;;;;;;32.00;28.33;;;;;9.03;72.83;103564.47;5014626;28;45437;-66
2022/01/28 10:34:37;;;;;;;;;37.00;27.00;;;;;9.15;71.62;103574.75;5024746;28;45327;-66
2022/01/28 10:37:13;;;;;;;;;33.50;28.25;;;;;9.23;71.02;103577.13;5017001;28;46305;-65
2022/01/28 10:39:45;;;;;;;;;41.75;31.25;;;;;9.18;70.84;103584.59;5039209;28;45363;-65
2022/01/28 10:42:13;;;;;;;;;32.33;27.33;;;;;9.11;70.90;103577.69;5017368;28;45415;-66
2022/01/28 10:44:54;;;;;;;;;41.25;35.50;;;;;9.12;72.12;103580.34;5024770;28;45458;-66
2022/01/28 10:47:42;;;;;;;;;33.50;30.25;;;;;9.20;70.94;103583.59;5016323;28;46108;-65
2022/01/28 10:50:25;;;;;;;;;43.25;34.75;;;;;9.18;70.39;103587.31;5022717;28;45216;-65
2022/01/28 10:53:18;;;;;;;;;40.00;35.50;;;;;9.15;71.34;103585.59;5019399;28;45310;-65
2022/01/28 10:55:46;;;;;;;;;37.25;30.25;;;;;9.18;70.95;103580.06;5018110;28;45603;-65
2022/01/28 10:58:14;;;;;;;;;26.33;25.67;;;;;9.19;70.64;103581.81;5021595;28;46546;-65
2022/01/28 11:00:49;;;;;;;;;33.67;28.00;;;;;9.25;70.15;103578.81;5020243;28;45377;-65
2022/01/28 11:03:18;;;;;;;;;39.25;29.50;;;;;9.49;70.53;103592.19;5012442;28;45538;-66
2022/01/28 11:05:44;;;;;;;;;33.25;30.50;;;;;9.30;70.26;103589.44;5020785;28;45454;-66
2022/01/28 11:08:13;;;;;;;;;43.50;33.25;;;;;9.25;70.63;103594.22;5020974;28;48275;-65
2022/01/28 11:10:41;;;;;;;;;49.50;36.25;;;;;9.26;70.79;103583.31;5021754;28;45336;-66
2022/01/28 11:13:07;;;;;;;;;38.75;30.25;;;;;9.13;71.20;103594.78;5014286;28;45342;-65
2022/01/28 11:15:33;;;;;;;;;52.00;39.25;;;;;9.03;71.58;103593.44;5022127;28;45631;-66
2022/01/28 11:18:01;;;;;;;;;35.00;30.67;;;;;9.11;71.15;103578.56;5015742;28;47083;-64
2022/01/28 11:20:41;;;;;;;;;35.67;30.33;;;;;9.14;71.50;103573.00;5024043;28;45697;-63
2022/01/28 11:23:37;;;;;;;;;43.50;37.00;;;;;9.16;71.68;103573.81;5021596;28;45370;-64
2022/01/28 11:26:20;;;;;;;;;33.67;26.33;;;;;9.36;71.52;103581.91;5018958;28;45460;-67
2022/01/28 11:28:48;;;;;;;;;53.75;37.50;;;;;9.45;71.29;103567.03;5023877;28;45370;-67
2022/01/28 11:31:14;;;;;;;;;43.25;29.75;;;;;9.49;71.00;103571.38;5016207;28;45492;-64
2022/01/28 11:33:44;;;;;;;;;34.75;29.50;;;;;9.36;71.16;103562.91;5022954;28;45345;-65
2022/01/28 11:36:09;;;;;;;;;44.25;36.00;;;;;9.56;71.10;103570.13;5017193;28;45314;-65
2022/01/28 11:38:39;;;;;;;;;38.50;31.50;;;;;9.80;70.80;103559.91;5022882;28;46246;-66
2022/01/28 11:41:20;;;;;;;;;41.75;32.75;;;;;9.84;69.72;103545.22;5017293;28;45454;-66
2022/01/28 11:43:56;;;;;;;;;36.00;28.00;;;;;9.61;70.60;103545.47;5016315;28;45417;-66
2022/01/28 11:46:27;;;;;;;;;40.75;31.75;;;;;9.41;70.51;103534.69;5032197;28;45396;-65
2022/01/28 11:48:52;;;;;;;;;36.00;28.33;;;;;9.63;70.75;103538.13;5023050;28;46174;-65
2022/01/28 11:51:20;;;;;;;;;28.33;22.33;;;;;9.89;69.82;103535.00;5016660;28;45304;-65
2022/01/28 11:54:02;;;;;;;;;38.33;30.00;;;;;9.78;68.41;103542.81;5023367;28;45333;-66
2022/01/28 11:56:29;;;;;;;;;34.00;24.33;;;;;9.64;69.78;103540.75;5017619;28;45379;-66
2022/01/28 11:58:59;;;;;;;;;35.75;31.00;;;;;9.62;69.38;103531.81;5019194;28;46085;-66
2022/01/28 12:01:45;;;;;;;;;33.67;28.33;;;;;9.60;69.44;103516.56;5016682;28;45355;-65
2022/01/28 12:04:30;;;;;;;;;40.75;34.00;;;;;9.88;69.21;103507.91;5020029;28;45347;-65
2022/01/28 12:07:03;;;;;;;;;50.50;36.75;;;;;9.54;69.35;103515.03;5019627;28;45394;-65
2022/01/28 12:09:29;;;;;;;;;39.00;30.67;;;;;9.77;69.65;103492.19;5020885;28;45551;-65
2022/01/28 12:11:55;;;;;;;;;24.33;16.33;;;;;9.75;68.18;103489.53;5019988;28;45764;-65
2022/01/28 12:14:53;;;;;;;;;34.00;24.50;;;;;9.60;68.62;103501.16;5022047;28;45484;-65
2022/01/28 12:17:34;;;;;;;;;25.67;20.67;;;;;9.68;68.45;103504.38;5012172;28;45146;-65
2022/01/28 12:20:24;;;;;;;;;36.33;32.00;;;;;9.65;68.48;103496.38;5020967;28;46102;-67
2022/01/28 12:23:10;;;;;;;;;34.00;27.00;;;;;9.70;68.67;103488.03;5014475;28;45226;-66
2022/01/28 12:25:35;;;;;;;;;26.33;21.33;;;;;9.84;69.13;103479.19;5019380;28;45430;-66
2022/01/28 12:28:13;;;;;;;;;33.67;27.67;;;;;10.16;68.66;103482.00;5015065;28;45645;-66
2022/01/28 12:30:39;;;;;;;;;30.67;26.00;;;;;10.16;67.90;103468.41;5018808;28;45468;-66
2022/01/28 12:33:05;;;;;;;;;31.00;19.00;;;;;10.02;67.96;103464.66;5019627;28;45383;-65
2022/01/28 12:35:30;;;;;;;;;33.75;27.00;;;;;9.77;68.33;103462.31;5020591;28;45283;-66
2022/01/28 12:38:01;;;;;;;;;32.00;26.33;;;;;9.52;68.37;103467.19;5019105;28;45180;-66
2022/01/28 12:40:34;;;;;;;;;33.00;30.00;;;;;9.57;69.22;103479.56;5007449;28;46357;-66
2022/01/28 12:43:00;;;;;;;;;36.67;26.00;;;;;9.72;68.04;103477.94;5017939;28;45369;-66
2022/01/28 12:45:26;;;;;;;;;26.00;22.00;;;;;9.57;67.91;103478.72;5020501;28;45341;-66
2022/01/28 12:47:51;;;;;;;;;30.33;24.00;;;;;9.59;67.38;103474.97;5017985;28;45295;-66